Time;durP1;ratioP1;P1;durP2;ratioP2;P2;SDS_P1;SDS_P2;PMS_P1;PMS_P2;Temp;Humidity;BMP_temperature;BMP_pressure;BME280_temperature;BME280_humidity;BME280_pressure;Samples;Min_cycle;Max_cycle;Signal;HPM_P1;HPM_P2
2022/07/24 00:01:00;;;;;;;;;18.25;16.00;;;;;23.36;51.52;101675.34;6282628;22;45531;-80
2022/07/24 00:03:26;;;;;;;;;17.25;17.25;;;;;23.36;51.32;101678.91;6282379;22;45322;-80
2022/07/24 00:05:52;;;;;;;;;16.00;13.75;;;;;23.37;51.46;101691.44;6282430;22;45252;-80
2022/07/24 00:08:18;;;;;;;;;14.00;12.00;;;;;23.38;51.80;101692.31;6254838;22;45292;-81
2022/07/24 00:10:43;;;;;;;;;18.00;16.50;;;;;23.29;51.82;101689.06;6282706;22;45248;-80
2022/07/24 00:13:09;;;;;;;;;14.00;14.00;;;;;23.35;51.58;101693.31;6283391;22;46202;-78
2022/07/24 00:15:34;;;;;;;;;15.50;14.00;;;;;23.26;51.77;101683.81;6283456;22;45394;-81
2022/07/24 00:17:59;;;;;;;;;16.50;13.75;;;;;23.23;51.92;101686.66;6254975;22;45280;-79
2022/07/24 00:20:25;;;;;;;;;23.50;17.50;;;;;23.23;52.05;101693.81;6286637;22;45295;-79
2022/07/24 00:22:50;;;;;;;;;14.50;14.50;;;;;23.08;52.23;101674.69;6281176;22;46227;-81
2022/07/24 00:25:16;;;;;;;;;16.50;15.50;;;;;23.05;51.86;101663.22;6282177;22;45224;-81
2022/07/24 00:27:41;;;;;;;;;19.75;17.75;;;;;23.13;51.98;101668.28;6283504;22;45808;-81
2022/07/24 00:30:07;;;;;;;;;16.50;15.00;;;;;23.10;52.09;101675.53;6283205;22;45387;-82
2022/07/24 00:32:33;;;;;;;;;20.25;16.00;;;;;22.97;51.89;101657.28;6282811;22;45272;-81
2022/07/24 00:34:58;;;;;;;;;15.75;15.75;;;;;22.90;52.20;101640.50;6254073;22;45257;-81
2022/07/24 00:37:24;;;;;;;;;16.50;16.50;;;;;22.93;52.65;101659.19;6254442;22;45224;-81
2022/07/24 00:39:49;;;;;;;;;17.75;15.00;;;;;22.81;52.12;101641.75;6255040;22;45173;-81
2022/07/24 00:42:15;;;;;;;;;15.75;14.75;;;;;22.76;52.32;101637.53;6280084;22;46126;-80
2022/07/24 00:44:40;;;;;;;;;15.50;13.75;;;;;22.76;52.65;101635.69;6252090;22;45758;-81
2022/07/24 00:47:06;;;;;;;;;19.75;17.50;;;;;22.73;52.50;101638.50;6279594;22;45318;-80
2022/07/24 00:49:31;;;;;;;;;21.25;20.25;;;;;22.65;52.58;101629.91;6251398;22;45631;-81
2022/07/24 00:51:56;;;;;;;;;20.75;18.25;;;;;22.70;52.97;101638.66;6278891;22;45105;-82
2022/07/24 00:54:23;;;;;;;;;18.75;17.75;;;;;22.68;52.78;101635.13;6279250;22;45425;-82
2022/07/24 00:56:51;;;;;;;;;17.25;14.00;;;;;22.55;52.83;101615.97;6253449;22;45319;-83
2022/07/24 00:59:16;;;;;;;;;18.00;16.75;;;;;22.61;52.77;101628.25;6282002;22;45253;-82
2022/07/24 01:01:42;;;;;;;;;15.75;14.75;;;;;22.56;52.88;101619.50;6253761;22;47520;-82
2022/07/24 01:04:08;;;;;;;;;16.50;14.25;;;;;22.52;52.98;101615.22;6253508;22;45185;-82
2022/07/24 01:06:33;;;;;;;;;17.00;15.75;;;;;22.51;53.05;101618.81;6278677;22;45358;-80
2022/07/24 01:09:00;;;;;;;;;17.25;16.00;;;;;22.41;53.04;101607.59;6253135;22;45193;-82
2022/07/24 01:11:26;;;;;;;;;20.75;18.25;;;;;22.55;53.11;101641.94;6281370;22;46637;-82
2022/07/24 01:13:51;;;;;;;;;18.25;17.75;;;;;22.54;52.99;101658.97;6254652;22;45398;-82
2022/07/24 01:16:17;;;;;;;;;15.00;14.75;;;;;22.49;53.04;101644.88;6282511;22;45933;-82
2022/07/24 01:18:43;;;;;;;;;12.00;11.50;;;;;22.31;53.25;101624.97;6280548;22;45663;-82
2022/07/24 01:21:08;;;;;;;;;18.00;15.50;;;;;22.35;53.06;101629.31;6282799;22;45368;-81
2022/07/24 01:23:34;;;;;;;;;17.00;17.00;;;;;22.41;52.82;101643.34;6254274;22;45284;-81
2022/07/24 01:26:01;;;;;;;;;14.75;14.25;;;;;22.38;53.01;101632.72;6282406;22;45162;-81
2022/07/24 01:28:27;;;;;;;;;17.25;16.50;;;;;22.35;53.30;101646.28;6253962;22;45389;-81
2022/07/24 01:30:53;;;;;;;;;18.50;15.50;;;;;22.30;53.34;101637.53;6281994;22;46374;-81
2022/07/24 01:33:19;;;;;;;;;18.25;17.75;;;;;22.36;53.80;101647.13;6281821;22;45220;-82
2022/07/24 01:35:45;;;;;;;;;20.50;18.50;;;;;22.19;53.57;101627.19;6281941;22;45149;-82
2022/07/24 01:38:12;;;;;;;;;15.75;15.50;;;;;22.09;53.42;101609.66;6282151;22;45276;-82
2022/07/24 01:40:38;;;;;;;;;19.00;16.00;;;;;22.23;53.63;101641.34;6254779;22;47266;-81
2022/07/24 01:43:04;;;;;;;;;19.25;16.75;;;;;22.06;53.76;101617.84;6255571;22;45206;-82
2022/07/24 01:45:30;;;;;;;;;18.50;17.50;;;;;22.11;53.62;101629.28;6281497;22;45413;-81
2022/07/24 01:47:55;;;;;;;;;15.25;14.50;;;;;22.12;54.05;101636.38;6253339;22;45200;-81
2022/07/24 01:50:21;;;;;;;;;20.00;17.25;;;;;22.07;54.00;101635.66;6252978;22;46913;-82
2022/07/24 01:52:46;;;;;;;;;19.75;17.75;;;;;21.96;54.13;101624.47;6253054;22;46298;-81
2022/07/24 01:55:12;;;;;;;;;20.25;17.75;;;;;21.96;54.65;101625.34;6281507;22;45418;-81
2022/07/24 01:57:38;;;;;;;;;18.00;17.25;;;;;21.87;54.13;101617.66;6279421;22;45482;-80
2022/07/24 02:00:08;;;;;;;;;17.00;15.25;;;;;21.85;54.32;101616.81;6281466;22;45278;-82
2022/07/24 02:02:34;;;;;;;;;17.50;17.25;;;;;21.87;54.28;101614.09;6281581;22;45342;-81
2022/07/24 02:04:59;;;;;;;;;19.75;18.25;;;;;21.84;55.18;101620.44;6281909;22;45367;-81
2022/07/24 02:07:25;;;;;;;;;17.00;15.50;;;;;21.75;54.28;101608.22;6254588;22;45454;-81
2022/07/24 02:09:50;;;;;;;;;18.25;17.25;;;;;21.89;54.57;101634.56;6282273;22;45381;-81
2022/07/24 02:12:15;;;;;;;;;18.00;18.00;;;;;21.83;54.55;101618.69;6254473;22;45711;-82
2022/07/24 02:14:41;;;;;;;;;21.25;19.00;;;;;21.71;54.68;101595.03;6281818;22;45272;-81
2022/07/24 02:17:06;;;;;;;;;17.75;17.00;;;;;21.68;54.98;101585.28;6282354;22;45508;-80
2022/07/24 02:19:32;;;;;;;;;19.25;17.25;;;;;21.77;54.68;101595.66;6281081;22;45955;-81
2022/07/24 02:21:57;;;;;;;;;22.25;20.00;;;;;21.69;55.07;101584.34;6253558;22;45288;-81
2022/07/24 02:24:23;;;;;;;;;20.75;19.25;;;;;21.74;55.17;101589.53;6254632;22;45099;-81
2022/07/24 02:26:49;;;;;;;;;21.75;19.50;;;;;21.82;55.19;101600.84;6282186;22;44659;-81
2022/07/24 02:29:15;;;;;;;;;22.75;20.75;;;;;21.80;55.24;101592.84;6280966;22;45282;-81
2022/07/24 02:31:40;;;;;;;;;26.50;25.75;;;;;21.77;54.88;101592.09;6280501;22;45105;-81
2022/07/24 02:34:06;;;;;;;;;20.25;18.75;;;;;21.77;55.18;101600.16;6252464;22;45415;-82
2022/07/24 02:36:31;;;;;;;;;24.50;22.50;;;;;21.78;54.79;101594.75;6280062;22;45215;-82
2022/07/24 02:38:56;;;;;;;;;20.75;20.50;;;;;21.81;55.45;101607.13;6252857;22;48317;-81
2022/07/24 02:41:22;;;;;;;;;28.75;25.00;;;;;21.74;55.33;101593.09;6280194;22;45307;-81
2022/07/24 02:43:47;;;;;;;;;21.25;18.75;;;;;21.84;55.13;101599.00;6280699;22;45827;-82
2022/07/24 02:46:13;;;;;;;;;23.50;21.75;;;;;21.83;55.56;101597.22;6253179;22;45415;-83
2022/07/24 02:48:38;;;;;;;;;22.75;22.00;;;;;21.63;55.45;101564.94;6280105;22;45404;-82
2022/07/24 02:51:04;;;;;;;;;21.00;18.50;;;;;21.72;55.45;101578.00;6252482;22;44849;-82
2022/07/24 02:53:29;;;;;;;;;24.75;22.25;;;;;21.59;55.75;101551.63;6279875;22;45391;-81
2022/07/24 02:55:54;;;;;;;;;21.00;17.50;;;;;21.68;55.59;101571.88;6278553;22;45487;-81
2022/07/24 02:58:20;;;;;;;;;21.75;20.25;;;;;21.69;55.61;101578.97;6252653;22;47145;-81
2022/07/24 03:00:46;;;;;;;;;19.75;18.50;;;;;21.57;55.85;101555.28;6252563;22;45128;-81
2022/07/24 03:03:11;;;;;;;;;24.25;20.00;;;;;21.53;55.64;101542.97;6280428;22;45166;-82
2022/07/24 03:05:36;;;;;;;;;20.25;18.75;;;;;21.73;55.66;101583.31;6278165;22;45468;-81
2022/07/24 03:08:02;;;;;;;;;26.25;18.25;;;;;21.61;55.91;101561.44;6251866;22;47283;-81
2022/07/24 03:10:28;;;;;;;;;19.50;16.75;;;;;21.55;55.73;101547.34;6252440;22;45179;-81
2022/07/24 03:12:53;;;;;;;;;18.25;16.50;;;;;21.56;55.96;101556.25;6279891;22;45200;-81
2022/07/24 03:15:18;;;;;;;;;20.50;18.75;;;;;21.52;55.55;101549.25;6277715;22;45211;-81
2022/07/24 03:17:50;;;;;;;;;20.25;17.25;;;;;21.69;55.96;101573.63;6277432;22;48230;-81
2022/07/24 03:20:15;;;;;;;;;16.75;15.75;;;;;21.68;55.64;101584.38;6278817;22;45375;-82
2022/07/24 03:22:41;;;;;;;;;18.75;18.00;;;;;21.49;55.55;101552.03;6279091;22;45125;-82
2022/07/24 03:25:06;;;;;;;;;16.75;15.75;;;;;21.61;55.75;101573.03;6279594;22;45129;-82
2022/07/24 03:27:32;;;;;;;;;19.50;16.75;;;;;21.55;56.04;101562.53;6251737;22;47635;-82
2022/07/24 03:29:57;;;;;;;;;20.00;16.25;;;;;21.50;55.44;101543.06;6279858;22;45241;-82
2022/07/24 03:32:22;;;;;;;;;14.00;13.50;;;;;21.55;55.63;101558.06;6251459;22;45136;-81
2022/07/24 03:34:48;;;;;;;;;13.25;13.25;;;;;21.59;55.27;101575.75;6278883;22;45418;-80
2022/07/24 03:37:13;;;;;;;;;16.50;16.50;;;;;21.50;55.14;101549.31;6276568;22;47787;-81
2022/07/24 03:39:39;;;;;;;;;19.25;17.00;;;;;21.47;55.31;101548.56;6278898;22;45141;-81
2022/07/24 03:42:04;;;;;;;;;17.50;16.00;;;;;21.53;55.17;101559.91;6250906;22;45197;-81
2022/07/24 03:44:30;;;;;;;;;18.50;17.50;;;;;21.55;55.42;101559.88;6279340;22;45178;-81
2022/07/24 03:46:57;;;;;;;;;15.00;15.00;;;;;21.63;55.26;101575.66;6278948;22;45257;-81
2022/07/24 03:49:23;;;;;;;;;16.25;14.50;;;;;21.55;55.38;101568.78;6251045;22;45383;-81
2022/07/24 03:51:51;;;;;;;;;16.50;15.00;;;;;21.48;55.55;101559.19;6278813;22;45228;-80
2022/07/24 03:54:17;;;;;;;;;15.75;13.75;;;;;21.56;55.52;101573.19;6278756;22;45147;-80
2022/07/24 03:56:42;;;;;;;;;16.75;16.00;;;;;21.49;55.48;101563.66;6276444;22;46217;-82
2022/07/24 03:59:07;;;;;;;;;18.75;15.50;;;;;21.44;55.53;101551.31;6279072;22;45159;-81
2022/07/24 04:01:33;;;;;;;;;15.25;15.25;;;;;21.56;55.52;101570.50;6251021;22;45234;-81
2022/07/24 04:04:04;;;;;;;;;16.75;15.50;;;;;21.33;55.41;101547.22;6276501;22;45406;-81
2022/07/24 04:06:31;;;;;;;;;16.25;12.75;;;;;21.44;55.83;101559.34;6278934;22;45798;-81
2022/07/24 04:08:56;;;;;;;;;18.75;17.00;;;;;21.39;55.80;101553.31;6251785;22;45123;-81
2022/07/24 04:11:22;;;;;;;;;18.75;18.75;;;;;21.59;55.60;101599.88;6279622;22;45673;-82
2022/07/24 04:13:47;;;;;;;;;18.75;18.75;;;;;21.46;55.65;101566.41;6279299;22;45499;-81
2022/07/24 04:16:13;;;;;;;;;18.00;16.25;;;;;21.62;55.22;101587.28;6279268;22;45257;-81
2022/07/24 04:18:38;;;;;;;;;14.75;13.00;;;;;21.61;55.67;101588.25;6279383;22;45144;-82
2022/07/24 04:21:04;;;;;;;;;15.25;15.25;;;;;21.61;55.46;101589.09;6277860;22;45262;-82
2022/07/24 04:23:29;;;;;;;;;21.75;18.25;;;;;21.46;55.62;101557.50;6251543;22;45260;-81
2022/07/24 04:25:55;;;;;;;;;17.50;14.75;;;;;21.50;55.83;101572.56;6251345;22;47901;-81
2022/07/24 04:28:23;;;;;;;;;13.50;12.50;;;;;21.59;55.83;101583.78;6279017;22;45229;-81
2022/07/24 04:30:52;;;;;;;;;18.00;15.00;;;;;21.57;55.88;101584.78;6276954;22;45242;-81
2022/07/24 04:33:17;;;;;;;;;20.50;18.00;;;;;21.55;56.10;101581.31;6278869;22;45098;-81
2022/07/24 04:35:43;;;;;;;;;19.00;18.00;;;;;21.47;56.12;101572.66;6250289;22;45931;-81
2022/07/24 04:38:12;;;;;;;;;20.25;19.50;;;;;21.36;56.00;101554.25;6250467;22;45267;-81
2022/07/24 04:40:37;;;;;;;;;20.75;19.25;;;;;21.45;55.81;101577.19;6250872;22;45265;-81
2022/07/24 04:43:11;;;;;;;;;20.00;19.50;;;;;21.49;55.59;101584.19;6278325;22;45343;-81
2022/07/24 04:45:37;;;;;;;;;14.50;13.00;;;;;21.37;55.97;101556.00;6251032;22;48021;-81
2022/07/24 04:48:03;;;;;;;;;18.25;15.75;;;;;21.47;56.12;101578.03;6252424;22;45389;-81
2022/07/24 04:50:28;;;;;;;;;18.00;16.00;;;;;21.24;55.93;101539.47;6253185;22;45371;-82
2022/07/24 04:52:56;;;;;;;;;18.00;17.25;;;;;21.50;56.16;101585.94;6252158;22;46019;-81
2022/07/24 04:55:22;;;;;;;;;18.75;17.25;;;;;21.42;56.24;101570.13;6279562;22;45345;-81
2022/07/24 04:57:47;;;;;;;;;18.50;17.75;;;;;21.30;56.11;101546.41;6280027;22;45330;-81
2022/07/24 05:00:16;;;;;;;;;17.00;14.75;;;;;21.33;56.14;101549.88;6251777;22;45249;-81
2022/07/24 05:02:42;;;;;;;;;20.50;19.25;;;;;21.46;56.14;101571.75;6279960;22;45165;-82
2022/07/24 05:05:08;;;;;;;;;17.00;16.50;;;;;21.42;56.07;101559.44;6279607;22;46184;-81
2022/07/24 05:07:33;;;;;;;;;18.75;17.75;;;;;21.41;56.50;101563.03;6277788;22;45326;-81
2022/07/24 05:10:02;;;;;;;;;18.25;17.75;;;;;21.51;56.20;101569.78;6278557;22;45276;-81
2022/07/24 05:12:28;;;;;;;;;22.75;16.75;;;;;21.50;56.46;101568.06;6280090;22;45338;-81
2022/07/24 05:14:53;;;;;;;;;18.00;17.75;;;;;21.55;56.63;101574.13;6280282;22;46519;-81
2022/07/24 05:17:28;;;;;;;;;16.50;15.00;;;;;21.57;56.42;101568.69;6281262;22;45160;-84
2022/07/24 05:20:03;;;;;;;;;19.50;18.25;;;;;21.68;56.44;101590.66;6281160;22;45226;-82
2022/07/24 05:22:29;;;;;;;;;18.00;16.50;;;;;21.48;56.72;101544.94;6253742;22;45244;-83
2022/07/24 05:24:54;;;;;;;;;17.50;17.50;;;;;21.62;56.67;101563.19;6281178;22;45421;-82
2022/07/24 05:27:22;;;;;;;;;23.00;20.00;;;;;21.67;56.65;101572.78;6253336;22;45150;-83
2022/07/24 05:29:50;;;;;;;;;22.50;20.50;;;;;21.64;56.69;101564.00;6281886;22;45165;-83
2022/07/24 05:32:20;;;;;;;;;19.75;17.50;;;;;21.61;56.55;101553.41;6279357;22;45299;-84
2022/07/24 05:34:49;;;;;;;;;24.25;22.00;;;;;21.61;56.55;101542.69;6253149;22;47330;-82
2022/07/24 05:37:14;;;;;;;;;19.00;18.00;;;;;21.72;56.39;101557.41;6254119;22;45347;-83
2022/07/24 05:39:40;;;;;;;;;18.50;18.00;;;;;21.77;56.77;101562.63;6254259;22;45377;-82
2022/07/24 05:42:08;;;;;;;;;18.75;18.75;;;;;21.94;56.39;101586.97;6281844;22;45406;-84
2022/07/24 05:52:48;;;;;;;;;23.00;19.50;;;;;22.11;56.25;101581.00;6055301;23;46252;-86
2022/07/24 05:55:13;;;;;;;;;25.00;20.75;;;;;22.01;56.18;101553.63;6033379;23;45240;-82
2022/07/24 05:57:39;;;;;;;;;21.75;20.00;;;;;22.06;55.96;101563.34;6187497;22;47636;-83
2022/07/24 06:00:05;;;;;;;;;20.00;18.00;;;;;22.16;56.16;101570.06;6246454;22;45328;-82
2022/07/24 06:02:30;;;;;;;;;19.50;18.00;;;;;22.13;55.70;101544.25;6252726;22;45347;-83
2022/07/24 06:05:06;;;;;;;;;20.00;17.50;;;;;22.31;55.50;101566.81;6278567;22;45236;-83
2022/07/24 06:07:37;;;;;;;;;15.75;14.00;;;;;22.26;55.51;101546.47;6280608;22;45453;-82
2022/07/24 06:10:06;;;;;;;;;18.75;17.25;;;;;22.33;55.37;101548.00;6280667;22;45358;-83
2022/07/24 06:12:39;;;;;;;;;14.50;14.25;;;;;22.41;55.12;101551.25;6253471;22;45264;-84
2022/07/24 06:15:29;;;;;;;;;16.75;16.50;;;;;22.58;54.84;101572.88;6255250;22;45688;-84
2022/07/24 06:17:57;;;;;;;;;15.00;15.00;;;;;22.64;54.92;101571.75;6280196;22;47308;-82
2022/07/24 06:20:31;;;;;;;;;17.00;15.00;;;;;22.52;54.32;101540.06;6280288;22;45415;-85
2022/07/24 06:23:13;;;;;;;;;;;;;;;;;;;;;
2022/07/24 06:25:38;;;;;;;;;15.00;14.25;;;;;22.82;54.49;101568.31;6282302;22;73012;-85
2022/07/24 06:28:04;;;;;;;;;15.75;15.75;;;;;22.90;54.03;101570.69;6257281;22;47077;-86
2022/07/24 06:33:54;;;;;;;;;17.00;15.50;;;;;22.94;53.73;101552.66;6285110;22;45164;-83
2022/07/24 06:36:55;;;;;;;;;18.75;17.50;;;;;22.95;53.73;101546.31;6255319;22;45752;-84
2022/07/24 06:46:08;;;;;;;;;22.75;18.00;;;;;23.04;53.16;101533.41;6231315;22;45368;-77
2022/07/24 06:48:34;;;;;;;;;15.25;15.25;;;;;23.08;53.28;101531.47;6280140;22;44805;-77
2022/07/24 06:50:59;;;;;;;;;16.75;15.75;;;;;23.17;53.01;101544.47;6251645;22;48013;-77
2022/07/24 06:53:24;;;;;;;;;19.25;17.75;;;;;23.17;53.08;101536.44;6279559;22;45267;-79
2022/07/24 06:55:53;;;;;;;;;17.75;17.25;;;;;23.25;53.01;101549.53;6279871;22;45094;-79
2022/07/24 06:58:19;;;;;;;;;16.50;15.25;;;;;23.31;53.11;101549.28;6251401;22;45237;-79
2022/07/24 07:00:48;;;;;;;;;18.50;15.25;;;;;23.26;52.85;101538.72;6251256;22;46180;-80
2022/07/24 07:03:14;;;;;;;;;17.50;16.50;;;;;23.30;52.83;101526.03;6251582;22;45354;-80
2022/07/24 07:05:52;;;;;;;;;14.25;14.25;;;;;23.33;53.16;101532.16;6279794;22;45307;-80
2022/07/24 07:08:17;;;;;;;;;16.75;16.00;;;;;23.49;52.52;101539.50;6277847;22;45216;-79
2022/07/24 07:10:45;;;;;;;;;18.50;18.25;;;;;23.55;52.65;101552.69;6250251;22;48518;-79
2022/07/24 07:13:10;;;;;;;;;4.25;4.25;;;;;23.53;52.21;101528.56;6250986;22;45406;-79
2022/07/24 07:15:35;;;;;;;;;18.75;16.75;;;;;23.57;52.10;101526.59;6278741;22;45361;-79
2022/07/24 07:18:03;;;;;;;;;14.25;14.25;;;;;23.78;51.84;101560.59;6278670;22;45422;-79
2022/07/24 07:20:32;;;;;;;;;15.00;15.00;;;;;23.77;52.16;101541.84;6278161;22;45883;-78
2022/07/24 07:22:58;;;;;;;;;20.75;16.25;;;;;23.87;52.10;101548.56;6251243;22;45260;-79
2022/07/24 07:25:23;;;;;;;;;16.75;15.00;;;;;23.89;51.86;101540.41;6250713;22;45718;-78
2022/07/24 07:27:49;;;;;;;;;18.75;18.75;;;;;23.93;51.50;101536.63;6278435;22;45378;-79
2022/07/24 07:30:17;;;;;;;;;19.00;14.50;;;;;23.93;52.02;101526.75;6276530;22;47129;-79
2022/07/24 07:32:43;;;;;;;;;19.75;19.25;;;;;24.12;51.90;101547.41;6278477;22;45381;-78
2022/07/24 07:35:09;;;;;;;;;19.00;18.00;;;;;24.16;51.67;101532.84;6278191;22;45299;-80
2022/07/24 07:37:37;;;;;;;;;15.25;15.00;;;;;24.27;51.35;101538.59;6250268;22;45690;-78
2022/07/24 07:40:03;;;;;;;;;17.50;16.00;;;;;24.36;51.07;101538.13;6277984;22;45218;-77
2022/07/24 07:42:29;;;;;;;;;23.00;20.25;;;;;24.49;51.52;101546.53;6277780;22;45272;-77
2022/07/24 07:44:57;;;;;;;;;18.25;16.50;;;;;24.54;50.94;101541.78;6250545;22;45253;-79
2022/07/24 07:47:23;;;;;;;;;18.75;17.75;;;;;24.53;50.79;101528.38;6250180;22;45367;-80
2022/07/24 07:49:48;;;;;;;;;17.50;15.75;;;;;24.69;50.44;101540.13;6277790;22;46159;-80
2022/07/24 07:52:14;;;;;;;;;20.00;19.00;;;;;24.74;50.87;101535.38;6277814;22;45368;-80
2022/07/24 07:54:39;;;;;;;;;16.00;16.00;;;;;24.89;50.53;101547.22;6278886;22;45266;-80
2022/07/24 07:57:07;;;;;;;;;22.50;19.00;;;;;24.87;50.46;101517.66;6245069;22;45198;-79
2022/07/24 07:59:35;;;;;;;;;16.50;16.50;;;;;25.07;49.94;101537.31;6249899;22;47966;-80
2022/07/24 08:02:03;;;;;;;;;17.00;16.50;;;;;25.03;50.27;101520.44;6249789;22;45421;-80
2022/07/24 08:04:29;;;;;;;;;19.50;18.25;;;;;25.15;49.90;101526.13;6277727;22;45343;-79
2022/07/24 08:06:54;;;;;;;;;20.50;17.75;;;;;25.20;49.75;101524.97;6277792;22;45317;-79
2022/07/24 08:09:20;;;;;;;;;19.00;17.00;;;;;25.30;49.63;101525.34;6277485;22;45521;-80
2022/07/24 08:11:49;;;;;;;;;19.75;17.00;;;;;25.38;49.22;101531.22;6278147;22;45217;-79
2022/07/24 08:14:15;;;;;;;;;18.75;16.00;;;;;25.40;49.33;101521.22;6276542;22;45407;-79
2022/07/24 08:16:40;;;;;;;;;16.00;15.50;;;;;25.55;49.58;101535.69;6248151;22;45285;-79
2022/07/24 08:19:09;;;;;;;;;16.75;15.00;;;;;25.62;49.07;101518.25;6277696;22;45346;-79
2022/07/24 08:21:36;;;;;;;;;21.00;16.50;;;;;25.63;48.48;101513.72;6251398;22;45327;-80
2022/07/24 08:24:20;;;;;;;;;14.50;13.00;;;;;25.66;49.01;101502.75;6277090;22;45229;-80
2022/07/24 08:26:54;;;;;;;;;20.50;19.25;;;;;25.72;48.16;101506.00;6279053;22;45241;-80
2022/07/24 08:29:20;;;;;;;;;15.50;15.25;;;;;25.80;48.21;101508.28;6250945;22;47273;-81
2022/07/24 08:31:54;;;;;;;;;19.25;16.50;;;;;25.88;47.87;101513.28;6251075;22;45182;-81
2022/07/24 08:34:23;;;;;;;;;20.00;17.25;;;;;25.93;47.84;101503.09;6251063;22;45173;-80
2022/07/24 08:36:48;;;;;;;;;17.50;16.50;;;;;25.99;47.76;101500.06;6251484;22;45382;-80
2022/07/24 08:39:15;;;;;;;;;19.25;17.50;;;;;26.13;47.02;101507.34;6278938;22;45299;-79
2022/07/24 08:41:41;;;;;;;;;15.50;15.50;;;;;26.22;46.66;101506.81;6251349;22;45340;-79
2022/07/24 08:44:07;;;;;;;;;17.25;14.75;;;;;26.31;46.59;101506.31;6277393;22;45299;-79
2022/07/24 08:46:39;;;;;;;;;17.50;15.75;;;;;26.28;46.10;101495.69;6278545;22;45351;-79
2022/07/24 08:49:10;;;;;;;;;15.50;13.00;;;;;26.49;46.11;101506.19;6279054;22;45298;-78
2022/07/24 08:51:39;;;;;;;;;14.75;14.75;;;;;26.51;45.81;101493.47;6278989;22;45221;-78
2022/07/24 08:54:05;;;;;;;;;13.75;12.75;;;;;26.51;45.45;101480.88;6251483;22;45328;-78
2022/07/24 08:56:37;;;;;;;;;18.00;15.25;;;;;26.66;45.91;101494.44;6279055;22;45201;-78
2022/07/24 08:59:06;;;;;;;;;15.75;15.25;;;;;26.75;45.20;101492.03;6279025;22;45543;-79
2022/07/24 09:01:31;;;;;;;;;12.25;10.75;;;;;26.81;44.82;101489.00;6278689;22;45309;-79
2022/07/24 09:03:57;;;;;;;;;12.00;11.00;;;;;26.86;43.52;101480.59;6279095;22;45909;-78
2022/07/24 09:06:22;;;;;;;;;9.75;9.75;;;;;26.96;43.51;101472.81;6279135;22;45465;-78
2022/07/24 09:09:00;;;;;;;;;11.00;11.00;;;;;27.06;42.95;101471.28;6251515;22;47989;-77
2022/07/24 09:11:29;;;;;;;;;9.50;9.50;;;;;27.14;42.96;101479.78;6251624;22;45215;-77
2022/07/24 09:16:46;;;;;;;;;10.50;10.50;;;;;27.24;42.65;101464.78;6278683;22;45362;-78
2022/07/24 09:19:13;;;;;;;;;15.50;10.50;;;;;27.25;42.40;101458.38;6251046;22;47183;-79
2022/07/24 09:21:43;;;;;;;;;12.50;11.75;;;;;27.41;42.75;101471.81;6250992;22;45265;-79
2022/07/24 09:24:32;;;;;;;;;10.00;8.50;;;;;27.45;42.31;101454.44;6246423;22;45345;-78
2022/07/24 09:26:57;;;;;;;;;7.00;7.00;;;;;27.54;42.08;101449.41;6235944;22;45822;-79
2022/07/24 09:29:25;;;;;;;;;8.75;8.25;;;;;27.71;41.61;101460.00;6276938;22;45907;-80
2022/07/24 09:31:59;;;;;;;;;10.00;10.00;;;;;27.77;41.32;101453.31;6278810;22;45365;-79
2022/07/24 09:34:27;;;;;;;;;12.00;11.00;;;;;27.78;41.45;101444.25;6276753;22;45393;-80
2022/07/24 09:37:08;;;;;;;;;9.75;8.75;;;;;27.91;40.97;101456.06;6251243;22;45420;-78
2022/07/24 09:39:38;;;;;;;;;7.00;7.00;;;;;27.88;40.39;101438.19;6276637;22;46223;-79
2022/07/24 09:42:07;;;;;;;;;7.67;7.67;;;;;27.98;40.13;101438.44;6250800;22;45368;-79
2022/07/24 09:44:33;;;;;;;;;10.67;10.67;;;;;28.01;39.98;101440.94;6251446;22;45212;-79
2022/07/24 09:47:02;;;;;;;;;11.33;11.33;;;;;28.00;40.21;101422.09;6278521;22;45213;-79
2022/07/24 09:49:29;;;;;;;;;9.00;8.25;;;;;28.07;39.33;101418.03;6278166;22;45422;-79
2022/07/24 09:52:15;;;;;;;;;8.75;8.75;;;;;28.20;39.00;101429.78;6278681;22;45358;-78
2022/07/24 09:54:48;;;;;;;;;10.00;9.50;;;;;28.22;38.69;101432.34;6279178;22;45189;-77
2022/07/24 09:57:23;;;;;;;;;9.67;9.67;;;;;28.26;38.59;101425.78;6250945;22;45335;-78
2022/07/24 10:00:05;;;;;;;;;9.33;8.67;;;;;28.32;38.84;101425.34;6238439;22;46044;-78
2022/07/24 10:02:34;;;;;;;;;8.00;7.50;;;;;28.34;37.99;101418.00;6248645;22;45513;-77
2022/07/24 10:05:02;;;;;;;;;9.33;9.33;;;;;28.47;37.84;101420.75;6249750;22;45398;-77
2022/07/24 10:07:28;;;;;;;;;7.33;7.33;;;;;28.48;38.29;101414.38;6278775;22;45177;-78
2022/07/24 10:09:56;;;;;;;;;10.00;8.67;;;;;28.58;37.43;101410.94;6278338;22;45234;-78
2022/07/24 10:12:25;;;;;;;;;8.33;7.33;;;;;28.65;36.86;101424.91;6250450;22;45382;-78
2022/07/24 10:14:53;;;;;;;;;9.67;9.00;;;;;28.68;36.44;101415.69;6245760;22;45253;-77
2022/07/24 10:17:19;;;;;;;;;6.67;6.67;;;;;28.73;36.92;101408.97;6250277;22;45417;-77
2022/07/24 10:19:49;;;;;;;;;6.33;6.33;;;;;28.84;36.84;101416.38;6250568;22;47430;-77
2022/07/24 10:22:24;;;;;;;;;7.67;7.00;;;;;28.93;36.31;101407.59;6251015;22;45201;-77
2022/07/24 10:25:06;;;;;;;;;7.33;7.33;;;;;29.13;35.88;101411.63;6279033;22;45300;-78
2022/07/24 10:27:36;;;;;;;;;7.33;6.67;;;;;29.13;35.77;101398.06;6250402;22;45394;-77
2022/07/24 10:30:08;;;;;;;;;6.00;5.33;;;;;29.38;35.14;101415.31;6278369;22;45712;-78
2022/07/24 10:32:35;;;;;;;;;6.00;5.00;;;;;29.50;35.31;101419.84;6251324;22;45990;-77
2022/07/24 10:35:24;;;;;;;;;7.67;6.33;;;;;29.63;35.20;101409.81;6273370;22;45426;-78
2022/07/24 10:38:13;;;;;;;;;7.33;7.33;;;;;29.77;34.74;101400.69;6248278;22;45935;-76
2022/07/24 10:41:15;;;;;;;;;7.67;6.67;;;;;29.96;34.12;101389.31;6248943;22;47931;-77
2022/07/24 10:43:40;;;;;;;;;10.50;9.25;;;;;30.12;34.39;101399.88;6276314;22;45483;-78
2022/07/24 10:46:06;;;;;;;;;7.67;7.00;;;;;30.27;33.39;101401.47;6243526;22;45407;-78
2022/07/24 10:48:41;;;;;;;;;7.33;7.00;;;;;30.33;32.49;101390.13;6273788;22;45290;-77
2022/07/24 10:51:11;;;;;;;;;5.00;5.00;;;;;30.38;32.51;101391.63;6247308;22;46923;-79
2022/07/24 10:53:37;;;;;;;;;5.00;5.00;;;;;30.45;32.59;101393.75;6276816;22;45270;-78
2022/07/24 10:56:41;;;;;;;;;6.00;6.00;;;;;30.52;32.55;101380.56;6249472;22;45264;-78
2022/07/24 10:59:09;;;;;;;;;8.00;8.00;;;;;30.60;32.61;101371.81;6248524;22;46184;-78
2022/07/24 11:01:44;;;;;;;;;7.33;7.33;;;;;30.74;31.84;101377.00;6249757;22;46206;-78
2022/07/24 11:04:19;;;;;;;;;6.00;6.00;;;;;30.88;30.95;101378.69;6250325;22;45319;-78
2022/07/24 11:07:08;;;;;;;;;6.33;6.00;;;;;30.96;31.34;101376.22;6250983;22;45287;-78
2022/07/24 11:09:55;;;;;;;;;8.00;6.67;;;;;31.03;31.26;101362.97;6278122;22;45578;-78
2022/07/24 11:12:31;;;;;;;;;5.00;5.00;;;;;31.04;31.02;101352.00;6250646;22;48060;-78
2022/07/24 11:17:50;;;;;;;;;7.00;6.33;;;;;31.27;31.40;101351.97;6252139;22;45472;-79
2022/07/24 11:20:17;;;;;;;;;5.00;5.00;;;;;31.38;31.45;101352.88;6250075;22;45817;-79
2022/07/24 11:22:52;;;;;;;;;8.33;8.33;;;;;31.54;30.72;101354.31;6248963;22;46941;-80
2022/07/24 11:25:19;;;;;;;;;7.00;7.00;;;;;31.61;30.70;101350.09;6278279;22;45200;-79
2022/07/24 11:27:47;;;;;;;;;7.67;7.67;;;;;31.68;30.98;101354.03;6276196;22;45430;-78
2022/07/24 11:30:14;;;;;;;;;7.67;6.00;;;;;31.84;30.62;101353.63;6250230;22;45404;-78
2022/07/24 11:32:41;;;;;;;;;5.67;5.67;;;;;31.93;30.33;101355.59;6250153;22;47122;-79
2022/07/24 11:35:08;;;;;;;;;9.50;8.00;;;;;32.02;30.34;101357.56;6278113;22;45223;-78
2022/07/24 11:37:35;;;;;;;;;9.75;9.25;;;;;32.05;30.13;101335.50;6245405;22;45423;-79
2022/07/24 11:40:01;;;;;;;;;7.00;5.33;;;;;32.18;29.91;101339.88;6240441;22;45448;-78
2022/07/24 11:42:26;;;;;;;;;6.67;6.67;;;;;32.18;29.78;101323.53;6276198;22;46872;-80